createdAt,value
2018-10-06T00:00:25.620Z,64.00
2018-10-06T00:02:59.176Z,64.30
2018-10-06T00:05:32.703Z,64.30
2018-10-06T00:08:06.271Z,64.40
2018-10-06T00:10:39.700Z,64.50
2018-10-06T00:15:53.440Z,64.70
2018-10-06T00:18:26.764Z,64.40
2018-10-06T00:21:01.106Z,64.50
2018-10-06T00:23:34.743Z,64.60
2018-10-06T00:26:08.334Z,64.80
2018-10-06T00:28:48.234Z,65.10
2018-10-06T00:31:21.762Z,65.20
2018-10-06T00:33:55.121Z,65.30
2018-10-06T00:36:28.632Z,65.30
2018-10-06T00:39:02.230Z,65.30
2018-10-06T00:41:35.680Z,65.20
2018-10-06T00:44:15.622Z,65.30
2018-10-06T00:46:49.157Z,65.50
2018-10-06T00:49:22.573Z,65.40
2018-10-06T00:51:56.050Z,65.40
2018-10-06T00:54:29.731Z,65.30
2018-10-06T00:57:03.181Z,65.90
2018-10-06T00:59:36.613Z,65.40
2018-10-06T01:02:09.953Z,65.70
2018-10-06T01:04:44.370Z,65.50
2018-10-06T01:07:17.944Z,65.30
2018-10-06T01:09:51.325Z,66.30
2018-10-06T01:12:31.309Z,65.70
2018-10-06T01:15:05.018Z,65.60
2018-10-06T01:17:38.601Z,65.40
2018-10-06T01:20:12.092Z,65.50
2018-10-06T01:22:45.385Z,65.80
2018-10-06T01:25:18.890Z,65.90
2018-10-06T01:27:53.408Z,65.80
2018-10-06T01:30:26.984Z,65.90
2018-10-06T01:33:01.404Z,65.90
2018-10-06T01:35:34.982Z,66.10
2018-10-06T01:38:08.518Z,65.90
2018-10-06T01:40:42.127Z,66.40
2018-10-06T01:43:15.625Z,66.10
2018-10-06T01:45:49.191Z,66.70
2018-10-06T01:48:23.752Z,66.20
2018-10-06T01:50:57.389Z,66.10
2018-10-06T01:53:31.275Z,66.20
2018-10-06T01:56:04.762Z,66.00
2018-10-06T01:58:38.463Z,66.30
2018-10-06T02:01:11.933Z,66.60
2018-10-06T02:03:45.488Z,66.70
2018-10-06T02:06:19.919Z,66.60
2018-10-06T02:08:53.393Z,66.50
2018-10-06T02:11:26.811Z,66.50
2018-10-06T02:14:00.418Z,66.60
2018-10-06T02:16:33.807Z,66.80
2018-10-06T02:19:07.313Z,67.10
2018-10-06T02:21:40.943Z,66.90
2018-10-06T02:24:20.962Z,67.20
2018-10-06T02:26:54.381Z,67.20
2018-10-06T02:29:27.892Z,67.30
2018-10-06T02:32:07.960Z,67.40
2018-10-06T02:34:41.551Z,67.00
2018-10-06T02:37:21.548Z,67.20
2018-10-06T02:39:55.105Z,67.10
2018-10-06T02:42:28.695Z,68.40
2018-10-06T02:45:02.235Z,68.50
2018-10-06T02:47:35.774Z,68.80
2018-10-06T02:50:09.273Z,68.40
2018-10-06T02:52:44.716Z,69.00
2018-10-06T02:55:18.213Z,70.20
2018-10-06T02:57:51.837Z,71.80
2018-10-06T03:00:25.434Z,71.50
2018-10-06T03:03:05.348Z,70.80
2018-10-06T03:05:44.965Z,70.60
2018-10-06T03:08:18.747Z,70.30
2018-10-06T03:10:52.139Z,71.00
2018-10-06T03:13:25.704Z,70.00
2018-10-06T03:15:59.302Z,70.00
2018-10-06T03:18:32.917Z,69.80
2018-10-06T03:21:12.821Z,69.90
2018-10-06T03:23:52.819Z,70.10
2018-10-06T03:26:26.392Z,70.20
2018-10-06T03:29:02.038Z,70.30
2018-10-06T03:31:35.530Z,70.30
2018-10-06T03:34:09.990Z,70.20
2018-10-06T03:36:49.941Z,70.20
2018-10-06T03:39:23.532Z,70.10
2018-10-06T03:41:57.099Z,70.20
2018-10-06T03:44:30.710Z,70.00
2018-10-06T03:47:04.368Z,70.00
2018-10-06T03:49:37.946Z,70.00
2018-10-06T03:52:11.303Z,70.10
2018-10-06T03:54:44.904Z,70.30
2018-10-06T03:57:18.405Z,70.70
2018-10-06T03:59:52.005Z,70.40
2018-10-06T04:02:25.639Z,70.30
2018-10-06T04:04:59.217Z,70.30
2018-10-06T04:07:33.689Z,70.40
2018-10-06T04:10:07.211Z,70.50
2018-10-06T04:12:40.956Z,70.40
2018-10-06T04:15:20.874Z,70.70
2018-10-06T04:17:54.409Z,70.70
2018-10-06T04:20:27.894Z,71.00
2018-10-06T04:23:01.375Z,70.90
2018-10-06T04:25:35.935Z,71.00
2018-10-06T04:28:09.433Z,71.00
2018-10-06T04:30:44.128Z,71.10
2018-10-06T04:33:17.620Z,71.20
2018-10-06T04:35:52.017Z,71.20
2018-10-06T04:38:25.378Z,71.40
2018-10-06T04:40:58.864Z,71.40
2018-10-06T04:43:32.447Z,71.60
2018-10-06T04:46:05.864Z,71.70
2018-10-06T04:48:39.380Z,71.80
2018-10-06T04:51:13.001Z,72.10
2018-10-06T04:53:59.732Z,72.40
2018-10-06T04:56:33.338Z,72.50
2018-10-06T04:59:06.972Z,72.40
2018-10-06T05:01:43.670Z,72.60
2018-10-06T05:04:23.614Z,72.60
2018-10-06T05:06:58.122Z,72.70
2018-10-06T05:09:31.746Z,73.00
2018-10-06T05:12:05.385Z,73.30
2018-10-06T05:14:38.947Z,73.40
2018-10-06T05:17:12.640Z,73.40
2018-10-06T05:19:46.198Z,73.50
2018-10-06T05:22:19.960Z,73.50
2018-10-06T05:24:59.914Z,73.50
2018-10-06T05:27:33.538Z,73.90
2018-10-06T05:30:07.177Z,74.00
2018-10-06T05:32:47.105Z,74.00
2018-10-06T05:35:20.637Z,74.00
2018-10-06T05:38:00.545Z,74.10
2018-10-06T05:40:40.497Z,74.70
2018-10-06T05:43:14.029Z,74.00
2018-10-06T05:45:47.703Z,74.10
2018-10-06T05:48:21.316Z,74.30
2018-10-06T05:50:54.867Z,74.20
2018-10-06T05:53:28.471Z,74.20
2018-10-06T05:56:02.064Z,74.20
2018-10-06T05:58:42.535Z,74.10
2018-10-06T06:01:16.026Z,74.50
2018-10-06T06:03:49.602Z,74.70
2018-10-06T06:06:23.253Z,74.40
2018-10-06T06:08:56.952Z,74.80
2018-10-06T06:11:36.840Z,74.70
2018-10-06T06:14:10.390Z,74.90
2018-10-06T06:16:43.969Z,75.00
2018-10-06T06:19:24.010Z,75.00
2018-10-06T06:21:57.483Z,75.30
2018-10-06T06:24:31.001Z,75.80
2018-10-06T06:27:10.963Z,76.20
2018-10-06T06:29:51.128Z,75.70
2018-10-06T06:32:24.813Z,75.90
2018-10-06T06:34:58.294Z,76.00
2018-10-06T06:37:31.857Z,76.20
2018-10-06T06:40:05.686Z,76.40
2018-10-06T06:42:39.212Z,76.70
2018-10-06T06:45:12.837Z,76.60
2018-10-06T06:47:46.460Z,76.70
2018-10-06T06:50:20.200Z,77.00
2018-10-06T06:52:53.623Z,77.70
2018-10-06T06:55:33.535Z,77.90
2018-10-06T06:58:13.385Z,78.20
2018-10-06T07:00:53.312Z,78.20
2018-10-06T07:03:27.992Z,78.10
2018-10-06T07:06:01.671Z,78.30
2018-10-06T07:08:35.143Z,78.80
2018-10-06T07:11:08.738Z,79.20
2018-10-06T07:13:48.600Z,79.60
2018-10-06T07:16:22.212Z,78.50
2018-10-06T07:18:55.760Z,78.40
2018-10-06T07:21:29.229Z,79.30
2018-10-06T07:24:05.872Z,79.30
2018-10-06T07:26:39.563Z,79.00
2018-10-06T07:29:13.125Z,79.00
2018-10-06T07:31:46.708Z,78.90
2018-10-06T07:34:26.775Z,79.50
2018-10-06T07:37:00.430Z,79.70
2018-10-06T07:39:33.905Z,79.80
2018-10-06T07:42:07.437Z,79.70
2018-10-06T07:44:41.843Z,79.60
2018-10-06T07:47:15.478Z,79.80
2018-10-06T07:49:49.024Z,80.10
2018-10-06T07:52:28.975Z,80.20
2018-10-06T07:55:02.474Z,80.10
2018-10-06T07:57:42.505Z,80.60
2018-10-06T08:00:16.083Z,80.80
2018-10-06T08:02:56.019Z,80.30
2018-10-06T08:05:29.542Z,80.40
2018-10-06T08:08:09.408Z,81.10
2018-10-06T08:10:44.069Z,81.40
2018-10-06T08:13:24.010Z,81.40
2018-10-06T08:15:57.592Z,81.40
2018-10-06T08:18:31.110Z,81.50
2018-10-06T08:21:04.526Z,81.30
2018-10-06T08:23:44.555Z,81.00
2018-10-06T08:26:24.442Z,81.10
2018-10-06T08:29:04.723Z,81.10
2018-10-06T08:31:38.377Z,80.90
2018-10-06T08:34:18.238Z,81.10
2018-10-06T08:36:52.071Z,81.00
2018-10-06T08:39:26.446Z,81.30
2018-10-06T08:41:59.952Z,80.80
2018-10-06T08:44:33.512Z,80.70
2018-10-06T08:47:07.931Z,80.60
2018-10-06T08:49:41.416Z,80.40
2018-10-06T08:52:15.892Z,80.20
2018-10-06T08:54:49.553Z,80.30
2018-10-06T08:57:23.134Z,80.30
2018-10-06T09:00:04.235Z,79.80
2018-10-06T09:02:37.680Z,80.10
2018-10-06T09:05:11.224Z,80.00
2018-10-06T09:07:51.185Z,79.70
2018-10-06T09:10:24.886Z,79.60
2018-10-06T09:12:58.343Z,79.70
2018-10-06T09:15:38.260Z,79.40
2018-10-06T09:18:15.036Z,79.40
2018-10-06T09:20:48.614Z,80.20
2018-10-06T09:23:28.428Z,78.80
2018-10-06T09:26:02.110Z,78.90
2018-10-06T09:28:41.967Z,76.40
2018-10-06T09:31:15.445Z,67.70
2018-10-06T09:33:55.501Z,59.50
2018-10-06T09:36:30.926Z,54.50
2018-10-06T09:39:06.990Z,50.80
2018-10-06T09:41:40.578Z,49.50
2018-10-06T09:44:14.209Z,48.10
2018-10-06T09:46:48.543Z,47.40
2018-10-06T09:49:28.529Z,46.80
2018-10-06T09:52:02.135Z,47.60
2018-10-06T09:54:42.073Z,48.70
2018-10-06T09:57:15.632Z,48.40
2018-10-06T09:59:49.240Z,48.20
2018-10-06T10:02:29.640Z,49.50
2018-10-06T10:05:08.808Z,51.70
2018-10-06T10:07:42.261Z,54.30
2018-10-06T10:10:22.265Z,56.40
2018-10-06T10:12:55.931Z,57.70
2018-10-06T10:15:29.589Z,58.90
2018-10-06T10:18:03.172Z,59.90
2018-10-06T10:20:43.155Z,61.30
2018-10-06T10:23:16.627Z,61.00
2018-10-06T10:25:50.138Z,61.40
2018-10-06T10:28:23.773Z,61.80
2018-10-06T10:30:57.400Z,61.30
2018-10-06T10:33:32.097Z,61.80
2018-10-06T10:36:06.112Z,62.10
2018-10-06T10:38:46.033Z,61.80
2018-10-06T10:41:19.496Z,61.60
2018-10-06T10:43:53.121Z,61.30
2018-10-06T10:46:26.710Z,61.70
2018-10-06T10:49:00.292Z,61.70
2018-10-06T10:51:33.949Z,61.40
2018-10-06T10:54:08.615Z,61.60
2018-10-06T10:56:42.068Z,60.70
2018-10-06T10:59:17.657Z,60.30
2018-10-06T11:01:51.427Z,60.50
2018-10-06T11:04:24.901Z,60.00
2018-10-06T11:06:58.474Z,59.40
2018-10-06T11:09:38.572Z,59.60
2018-10-06T11:12:13.060Z,59.50
2018-10-06T11:14:52.933Z,59.10
2018-10-06T11:17:26.410Z,58.90
2018-10-06T11:20:05.359Z,58.90
2018-10-06T11:22:45.193Z,58.60
2018-10-06T11:25:19.706Z,58.50
2018-10-06T11:27:59.707Z,58.40
2018-10-06T11:30:33.422Z,58.20
2018-10-06T11:33:06.954Z,58.00
2018-10-06T11:35:40.651Z,57.60
2018-10-06T11:38:14.356Z,57.30
2018-10-06T11:40:47.836Z,57.30
2018-10-06T11:43:27.821Z,57.50
2018-10-06T11:46:03.415Z,57.40
2018-10-06T11:48:43.415Z,56.80
2018-10-06T11:51:23.392Z,56.20
2018-10-06T11:53:56.807Z,55.90
2018-10-06T11:56:36.940Z,55.70
2018-10-06T11:59:16.831Z,55.20
2018-10-06T12:01:56.819Z,55.50
2018-10-06T12:04:30.445Z,55.00
2018-10-06T12:07:03.922Z,55.20
2018-10-06T12:09:37.557Z,55.30
2018-10-06T12:12:17.689Z,55.30
2018-10-06T12:14:52.280Z,55.10
2018-10-06T12:17:25.917Z,55.00
2018-10-06T12:20:05.844Z,54.50
2018-10-06T12:22:40.290Z,55.10
2018-10-06T12:25:14.015Z,55.30
2018-10-06T12:27:53.863Z,54.80
2018-10-06T12:30:33.837Z,53.80
2018-10-06T12:33:07.265Z,52.60
2018-10-06T12:35:41.656Z,52.30
2018-10-06T12:38:15.212Z,52.50
2018-10-06T12:40:48.770Z,52.00
2018-10-06T12:43:22.517Z,51.80
2018-10-06T12:45:56.004Z,51.40
2018-10-06T12:48:35.895Z,51.10
2018-10-06T12:51:09.517Z,51.10
2018-10-06T12:53:43.115Z,50.10
2018-10-06T12:56:16.596Z,49.60
2018-10-06T12:58:50.315Z,49.60
2018-10-06T13:01:30.207Z,50.00
2018-10-06T13:04:03.934Z,49.80
2018-10-06T13:06:37.402Z,49.80
2018-10-06T13:09:11.540Z,49.20
2018-10-06T13:11:45.064Z,48.50
2018-10-06T13:14:18.543Z,48.60
2018-10-06T13:16:58.695Z,50.00
2018-10-06T13:19:38.573Z,49.20
2018-10-06T13:22:12.118Z,49.50
2018-10-06T13:24:52.027Z,47.60
2018-10-06T13:27:25.559Z,43.50
2018-10-06T13:30:00.140Z,43.00
2018-10-06T13:32:40.082Z,39.40
2018-10-06T13:35:19.985Z,39.20
2018-10-06T13:37:53.560Z,39.40
2018-10-06T13:40:33.495Z,40.50
2018-10-06T13:43:08.039Z,40.40
2018-10-06T13:45:41.669Z,38.50
2018-10-06T13:48:21.566Z,38.00
2018-10-06T13:50:55.409Z,38.30
2018-10-06T13:53:30.149Z,38.30
2018-10-06T13:56:03.853Z,37.30
2018-10-06T13:58:37.742Z,38.90
2018-10-06T14:01:11.527Z,38.80
2018-10-06T14:03:47.608Z,39.00
2018-10-06T14:06:27.807Z,37.90
2018-10-06T14:09:01.720Z,39.30
2018-10-06T14:11:35.486Z,38.70
2018-10-06T14:14:09.451Z,39.40
2018-10-06T14:16:43.222Z,39.30
2018-10-06T14:19:17.147Z,38.30
2018-10-06T14:21:51.053Z,39.00
2018-10-06T14:24:25.000Z,37.40
2018-10-06T14:26:58.814Z,37.60
2018-10-06T14:29:32.585Z,36.70
2018-10-06T14:32:06.368Z,36.80
2018-10-06T14:34:46.688Z,37.30
2018-10-06T14:37:26.823Z,37.00
2018-10-06T14:40:00.783Z,37.70
2018-10-06T14:42:36.780Z,37.60
2018-10-06T14:45:10.592Z,37.80
2018-10-06T14:47:44.490Z,36.20
2018-10-06T14:50:31.319Z,36.20
2018-10-06T14:53:05.591Z,34.30
2018-10-06T14:55:39.671Z,35.20
2018-10-06T14:58:14.552Z,36.50
2018-10-06T15:00:48.342Z,38.00
2018-10-06T15:03:23.036Z,39.00
2018-10-06T15:06:02.014Z,39.80
2018-10-06T15:08:42.181Z,40.70
2018-10-06T15:11:16.101Z,41.60
2018-10-06T15:13:49.947Z,42.00
2018-10-06T15:16:23.956Z,42.40
2018-10-06T15:18:57.793Z,42.80
2018-10-06T15:21:31.634Z,42.80
2018-10-06T15:24:05.473Z,43.40
2018-10-06T15:26:40.287Z,43.40
2018-10-06T15:29:14.228Z,43.60
2018-10-06T15:31:48.646Z,44.30
2018-10-06T15:34:23.195Z,44.40
2018-10-06T15:36:56.674Z,44.20
2018-10-06T15:39:30.219Z,44.40
2018-10-06T15:42:10.235Z,44.70
2018-10-06T15:44:50.112Z,44.80
2018-10-06T15:47:23.722Z,44.90
2018-10-06T15:49:57.513Z,45.10
2018-10-06T15:52:31.921Z,45.40
2018-10-06T15:55:05.542Z,45.30
2018-10-06T15:57:45.473Z,45.50
2018-10-06T16:00:18.972Z,45.80
2018-10-06T16:02:52.648Z,45.60
2018-10-06T16:05:26.251Z,45.70
2018-10-06T16:07:59.895Z,45.90
2018-10-06T16:10:33.463Z,46.30
2018-10-06T16:13:07.080Z,46.30
2018-10-06T16:15:40.574Z,46.50
2018-10-06T16:18:14.321Z,47.00
2018-10-06T16:20:49.041Z,47.10
2018-10-06T16:23:22.634Z,47.30
2018-10-06T16:25:57.158Z,47.30
2018-10-06T16:28:30.925Z,47.50
2018-10-06T16:31:04.466Z,47.90
2018-10-06T16:33:44.414Z,48.60
2018-10-06T16:36:18.294Z,49.30
2018-10-06T16:38:51.766Z,49.50
2018-10-06T16:41:25.355Z,50.00
2018-10-06T16:44:05.449Z,50.20
2018-10-06T16:46:41.586Z,50.30
2018-10-06T16:49:15.213Z,50.80
2018-10-06T16:51:55.057Z,51.10
2018-10-06T16:54:35.352Z,51.10
2018-10-06T16:57:08.812Z,51.10
2018-10-06T16:59:43.468Z,51.10
2018-10-06T17:02:16.946Z,50.80
2018-10-06T17:04:56.593Z,50.80
2018-10-06T17:07:36.689Z,50.40
2018-10-06T17:10:16.608Z,50.20
2018-10-06T17:12:50.235Z,50.20
2018-10-06T17:15:23.859Z,50.30
2018-10-06T17:17:57.386Z,50.40
2018-10-06T17:20:30.924Z,50.80
2018-10-06T17:23:04.488Z,51.00
2018-10-06T17:25:38.114Z,51.20
2018-10-06T17:28:11.903Z,51.50
2018-10-06T17:30:45.444Z,51.60
2018-10-06T17:33:20.105Z,52.10
2018-10-06T17:35:56.775Z,52.30
2018-10-06T17:38:36.798Z,52.40
2018-10-06T17:41:16.612Z,52.70
2018-10-06T17:43:50.240Z,52.60
2018-10-06T17:46:23.833Z,52.60
2018-10-06T17:48:57.421Z,52.60
2018-10-06T17:51:37.333Z,52.90
2018-10-06T17:54:11.047Z,52.90
2018-10-06T17:56:51.081Z,53.20
2018-10-06T17:59:24.528Z,53.40
2018-10-06T18:02:04.610Z,53.90
2018-10-06T18:04:44.474Z,54.20
2018-10-06T18:07:18.076Z,54.30
2018-10-06T18:09:51.632Z,54.50
2018-10-06T18:12:31.611Z,54.80
2018-10-06T18:15:11.653Z,55.10
2018-10-06T18:17:51.532Z,55.20
2018-10-06T18:20:31.768Z,55.30
2018-10-06T18:23:05.160Z,55.40
2018-10-06T18:25:38.833Z,55.60
2018-10-06T18:28:12.328Z,55.90
2018-10-06T18:30:52.207Z,55.90
2018-10-06T18:33:26.653Z,56.00
2018-10-06T18:36:06.822Z,56.30
2018-10-06T18:38:40.391Z,56.10
2018-10-06T18:41:14.091Z,56.10
2018-10-06T18:43:54.226Z,56.30
2018-10-06T18:46:28.606Z,56.00
2018-10-06T18:49:02.462Z,56.40
2018-10-06T18:51:36.052Z,56.30
2018-10-06T18:54:09.594Z,56.30
2018-10-06T18:56:44.109Z,56.40
2018-10-06T18:59:24.145Z,56.80
2018-10-06T19:01:57.774Z,56.90
2018-10-06T19:04:31.379Z,56.90
2018-10-06T19:07:05.043Z,56.80
2018-10-06T19:09:45.062Z,56.90
2018-10-06T19:12:18.692Z,56.90
2018-10-06T19:14:58.726Z,57.20
2018-10-06T19:17:32.405Z,57.20
2018-10-06T19:20:06.006Z,57.30
2018-10-06T19:22:39.686Z,57.70
2018-10-06T19:25:13.327Z,57.90
2018-10-06T19:27:46.914Z,58.10
2018-10-06T19:30:21.541Z,58.30
2018-10-06T19:32:55.169Z,58.40
2018-10-06T19:35:34.963Z,59.00
2018-10-06T19:38:09.481Z,59.10
2018-10-06T19:40:43.110Z,59.50
2018-10-06T19:43:16.754Z,59.30
2018-10-06T19:45:50.464Z,59.60
2018-10-06T19:48:30.491Z,59.40
2018-10-06T19:51:03.977Z,59.40
2018-10-06T19:53:37.680Z,59.40
2018-10-06T19:56:17.572Z,59.80
2018-10-06T19:58:57.687Z,59.80
2018-10-06T20:01:36.413Z,60.20
2018-10-06T20:04:10.165Z,60.40
2018-10-06T20:06:43.755Z,60.80
2018-10-06T20:09:17.362Z,61.00
2018-10-06T20:11:57.333Z,61.40
2018-10-06T20:14:30.850Z,61.50
2018-10-06T20:17:04.207Z,61.70
2018-10-06T20:19:37.885Z,62.10
2018-10-06T20:22:12.024Z,62.40
2018-10-06T20:24:52.039Z,62.80
2018-10-06T20:27:31.885Z,62.90
2018-10-06T20:30:12.014Z,62.90
2018-10-06T20:32:45.567Z,62.90
2018-10-06T20:35:19.125Z,63.30
2018-10-06T20:37:52.684Z,63.40
2018-10-06T20:40:26.335Z,63.90
2018-10-06T20:42:59.641Z,63.80
2018-10-06T20:45:39.926Z,64.00
2018-10-06T20:48:19.772Z,64.20
2018-10-06T20:50:53.194Z,64.10
2018-10-06T20:53:27.009Z,64.00
2018-10-06T20:56:00.558Z,64.00
2018-10-06T20:58:34.191Z,63.90
2018-10-06T21:01:07.752Z,64.30
2018-10-06T21:03:41.156Z,64.40
2018-10-06T21:06:14.747Z,64.50
2018-10-06T21:08:48.367Z,65.10
2018-10-06T21:11:22.078Z,65.20
2018-10-06T21:13:55.790Z,65.70
2018-10-06T21:16:36.208Z,66.20
2018-10-06T21:19:10.700Z,66.10
2018-10-06T21:21:44.261Z,66.00
2018-10-06T21:24:17.866Z,66.20
2018-10-06T21:26:52.530Z,66.90
2018-10-06T21:29:32.741Z,67.30
2018-10-06T21:32:12.487Z,68.00
2018-10-06T21:34:52.469Z,68.50
2018-10-06T21:37:25.968Z,69.20
2018-10-06T21:39:59.612Z,71.40
2018-10-06T21:42:34.073Z,72.70
2018-10-06T21:45:07.679Z,74.10
2018-10-06T21:47:41.235Z,74.40
2018-10-06T21:50:21.151Z,75.00
2018-10-06T21:52:54.795Z,75.20
2018-10-06T21:55:28.399Z,75.30
2018-10-06T21:58:08.388Z,75.40
2018-10-06T22:00:41.929Z,75.90
2018-10-06T22:03:21.688Z,76.10
2018-10-06T22:05:55.129Z,76.10
2018-10-06T22:08:35.276Z,76.40
2018-10-06T22:11:08.719Z,76.30
2018-10-06T22:13:42.346Z,76.20
2018-10-06T22:16:15.909Z,76.30
2018-10-06T22:18:49.608Z,76.20
2018-10-06T22:21:29.651Z,76.40
2018-10-06T22:24:03.407Z,76.70
2018-10-06T22:26:37.004Z,76.70
2018-10-06T22:29:10.584Z,77.00
2018-10-06T22:31:50.704Z,77.90
2018-10-06T22:34:24.538Z,77.40
2018-10-06T22:36:58.475Z,77.40
2018-10-06T22:39:32.338Z,77.70
2018-10-06T22:42:09.146Z,77.80
2018-10-06T22:44:42.725Z,77.70
2018-10-06T22:47:22.619Z,78.70
2018-10-06T22:49:56.236Z,77.80
2018-10-06T22:52:29.946Z,77.90
2018-10-06T22:55:03.606Z,78.20
2018-10-06T22:57:37.257Z,78.40
2018-10-06T23:00:16.994Z,79.30
2018-10-06T23:02:50.618Z,78.60
2018-10-06T23:05:25.251Z,78.50
2018-10-06T23:07:58.837Z,78.60
2018-10-06T23:10:32.452Z,78.80
2018-10-06T23:13:09.187Z,78.80
2018-10-06T23:15:42.727Z,79.50
2018-10-06T23:18:22.767Z,78.90
2018-10-06T23:20:56.293Z,79.00
2018-10-06T23:23:29.915Z,78.80
2018-10-06T23:26:03.545Z,78.90
2018-10-06T23:28:37.176Z,79.00
2018-10-06T23:31:10.700Z,79.50
2018-10-06T23:33:44.381Z,78.90
2018-10-06T23:36:17.975Z,78.90
2018-10-06T23:38:51.486Z,79.90
2018-10-06T23:41:25.011Z,79.10
2018-10-06T23:43:58.581Z,79.20
2018-10-06T23:46:32.225Z,79.20
2018-10-06T23:49:05.825Z,79.00
2018-10-06T23:51:45.722Z,78.80
2018-10-06T23:54:19.294Z,78.90
2018-10-06T23:56:59.213Z,78.60
2018-10-06T23:59:32.633Z,78.60
